Heartland, Texas
Current Conditions -  °F | °C
As of 9:50 AM on Thursday 30 Oct 2014 (Local Time) from KHQZ Reporting Station
Clear Clear  
Wind Chill: 61°   Ceiling: Unl
Heat Index: 61°   Visibility: 10mi
Dew Point: 48°   Wind: 3mph
Humidity: 63%   Direction: 150°SSE
Pressure: 30.19"   Gusts: NA
Location:  32.7342°N, 96.451°W
Report Text: KHQZ 301450Z 15003KT 10SM CLR 16/09 A3019
Loading
Personal Weather Stations






























Interactive Weather Map
Tropical Storm Tracking
New forecast layout! Learn more

10-Day Weather Forecast

Advertisements
Track Severe Weather on mobile